Time;durP1;ratioP1;P1;durP2;ratioP2;P2;SDS_P1;SDS_P2;PMS_P1;PMS_P2;Temp;Humidity;BMP_temperature;BMP_pressure;BME280_temperature;BME280_humidity;BME280_pressure;Samples;Min_cycle;Max_cycle;Signal;HPM_P1;HPM_P2
2022/04/19 00:00:04;;;;;;;;;;;12.10;94.50;;;;;;4968699;28;20294;-66
2022/04/19 00:02:30;;;;;;;;;;;12.10;94.20;;;;;;4963015;28;19921;-64
2022/04/19 00:04:58;;;;;;;;;;;12.10;94.00;;;;;;4967594;28;19918;-65
2022/04/19 00:07:24;;;;;;;;;;;12.00;94.30;;;;;;4970949;28;20379;-66
2022/04/19 00:09:49;;;;;;;;;;;12.10;94.70;;;;;;4962780;28;20017;-65
2022/04/19 00:12:15;;;;;;;;;;;12.10;94.60;;;;;;4968381;28;19914;-67
2022/04/19 00:14:40;;;;;;;;;;;12.10;94.10;;;;;;4970104;28;20008;-67
2022/04/19 00:17:06;;;;;;;;;;;12.00;93.70;;;;;;4967993;28;19961;-68
2022/04/19 00:19:31;;;;;;;;;;;12.00;93.80;;;;;;4967173;28;19937;-67
2022/04/19 00:21:57;;;;;;;;;;;12.00;94.00;;;;;;4957876;28;19975;-67
2022/04/19 00:24:22;;;;;;;;;;;12.00;94.90;;;;;;4965696;28;19917;-67
2022/04/19 00:26:48;;;;;;;;;;;11.90;94.60;;;;;;4960737;28;19954;-68
2022/04/19 00:29:13;;;;;;;;;;;11.90;94.60;;;;;;4964460;28;20425;-67
2022/04/19 00:31:39;;;;;;;;;;;11.90;94.30;;;;;;4964559;28;19925;-68
2022/04/19 00:34:04;;;;;;;;;;;11.90;94.70;;;;;;4958056;28;19929;-68
2022/04/19 00:36:30;;;;;;;;;;;11.90;94.80;;;;;;4968152;28;20323;-68
2022/04/19 00:38:56;;;;;;;;;;;11.90;94.80;;;;;;4964275;28;20450;-69
2022/04/19 00:41:21;;;;;;;;;;;11.80;94.80;;;;;;4969415;28;19976;-68
2022/04/19 00:43:47;;;;;;;;;;;11.80;94.30;;;;;;4968205;28;20667;-64
2022/04/19 00:46:12;;;;;;;;;;;11.80;94.90;;;;;;4970453;28;19973;-67
2022/04/19 00:48:38;;;;;;;;;;;11.70;94.80;;;;;;4962402;28;19910;-66
2022/04/19 00:51:04;;;;;;;;;;;11.70;94.80;;;;;;4957680;28;19969;-67
2022/04/19 00:53:29;;;;;;;;;;;11.60;94.70;;;;;;4965196;28;19918;-67
2022/04/19 00:55:55;;;;;;;;;;;11.60;94.90;;;;;;4963079;28;20024;-66
2022/04/19 00:58:21;;;;;;;;;;;11.60;94.90;;;;;;4960176;28;19914;-67
2022/04/19 01:00:50;;;;;;;;;;;11.60;94.80;;;;;;4965738;28;19914;-67
2022/04/19 01:03:15;;;;;;;;;;;11.50;94.60;;;;;;4959072;28;20392;-66
2022/04/19 01:05:43;;;;;;;;;;;11.50;94.80;;;;;;4970425;28;19914;-68
2022/04/19 01:08:08;;;;;;;;;;;11.40;94.90;;;;;;4964362;28;19922;-68
2022/04/19 01:10:35;;;;;;;;;;;11.50;94.40;;;;;;4965405;28;19915;-69
2022/04/19 01:13:19;;;;;;;;;;;11.40;94.20;;;;;;4970543;28;19922;-67
2022/04/19 01:15:45;;;;;;;;;;;11.40;94.40;;;;;;4963459;28;20152;-68
2022/04/19 01:18:11;;;;;;;;;;;11.30;94.70;;;;;;4969992;28;20005;-68
2022/04/19 01:20:38;;;;;;;;;;;11.20;94.40;;;;;;4965610;28;20462;-66
2022/04/19 01:23:04;;;;;;;;;;;11.20;94.20;;;;;;4971114;28;20295;-68
2022/04/19 01:25:29;;;;;;;;;;;11.10;93.90;;;;;;4968339;28;19921;-67
2022/04/19 01:27:55;;;;;;;;;;;11.10;94.10;;;;;;4969492;28;19949;-67
2022/04/19 01:30:20;;;;;;;;;;;11.10;93.90;;;;;;4963154;28;19939;-69
2022/04/19 01:32:46;;;;;;;;;;;11.10;93.80;;;;;;4961140;28;19917;-67
2022/04/19 01:35:16;;;;;;;;;;;11.00;93.90;;;;;;4965585;28;20009;-68
2022/04/19 01:37:43;;;;;;;;;;;11.00;93.70;;;;;;4962044;28;20005;-65
2022/04/19 01:40:17;;;;;;;;;;;10.90;93.70;;;;;;4956994;28;19944;-66
2022/04/19 01:42:44;;;;;;;;;;;10.90;93.50;;;;;;4965487;28;19922;-65
2022/04/19 01:45:10;;;;;;;;;;;10.80;93.30;;;;;;4962529;28;20053;-67
2022/04/19 01:47:35;;;;;;;;;;;10.80;93.30;;;;;;4972511;28;20008;-68
2022/04/19 01:50:01;;;;;;;;;;;10.80;93.10;;;;;;4966020;28;19992;-66
2022/04/19 01:52:27;;;;;;;;;;;10.70;93.20;;;;;;4964522;28;19930;-67
2022/04/19 01:54:52;;;;;;;;;;;10.70;93.10;;;;;;4973281;28;20049;-68
2022/04/19 01:57:19;;;;;;;;;;;10.70;92.90;;;;;;4962095;28;19988;-67
2022/04/19 01:59:45;;;;;;;;;;;10.70;92.80;;;;;;4973373;28;19921;-68
2022/04/19 02:02:10;;;;;;;;;;;10.60;93.00;;;;;;4970022;28;19914;-67
2022/04/19 02:04:35;;;;;;;;;;;10.50;93.10;;;;;;4971543;28;20375;-68
2022/04/19 02:07:03;;;;;;;;;;;10.50;93.00;;;;;;4972370;28;19920;-66
2022/04/19 02:09:29;;;;;;;;;;;10.50;92.80;;;;;;4968578;28;19973;-68
2022/04/19 02:11:54;;;;;;;;;;;10.50;92.90;;;;;;4969054;28;19911;-66
2022/04/19 02:14:23;;;;;;;;;;;10.50;92.70;;;;;;4972579;28;20009;-67
2022/04/19 02:16:51;;;;;;;;;;;10.50;92.70;;;;;;4971779;28;19958;-67
2022/04/19 02:19:16;;;;;;;;;;;10.40;92.60;;;;;;4967399;28;19961;-68
2022/04/19 02:21:42;;;;;;;;;;;10.50;92.70;;;;;;4987235;28;19934;-68
2022/04/19 02:24:07;;;;;;;;;;;10.40;92.30;;;;;;4974830;28;20393;-68
2022/04/19 02:26:33;;;;;;;;;;;10.40;92.50;;;;;;4973260;28;19937;-68
2022/04/19 02:28:58;;;;;;;;;;;10.40;92.40;;;;;;4972316;28;19969;-68
2022/04/19 02:31:24;;;;;;;;;;;10.30;92.50;;;;;;4972961;28;19962;-68
2022/04/19 02:33:50;;;;;;;;;;;10.30;92.70;;;;;;4970107;28;19932;-68
2022/04/19 02:36:15;;;;;;;;;;;10.20;92.60;;;;;;4973939;28;19910;-69
2022/04/19 02:38:41;;;;;;;;;;;10.20;92.30;;;;;;4968741;28;20375;-68
2022/04/19 02:41:06;;;;;;;;;;;10.30;92.40;;;;;;4972191;28;19925;-68
2022/04/19 02:43:32;;;;;;;;;;;10.30;92.20;;;;;;4969422;28;20291;-68
2022/04/19 02:45:57;;;;;;;;;;;10.20;92.20;;;;;;4968179;28;19936;-67
2022/04/19 02:48:23;;;;;;;;;;;10.20;92.40;;;;;;4965008;28;20399;-67
2022/04/19 02:50:49;;;;;;;;;;;10.10;92.30;;;;;;4964240;28;19911;-67
2022/04/19 02:53:15;;;;;;;;;;;10.10;92.10;;;;;;4967551;28;19936;-68
2022/04/19 02:55:41;;;;;;;;;;;10.10;92.10;;;;;;4968763;28;20372;-68
2022/04/19 02:58:07;;;;;;;;;;;10.10;92.10;;;;;;4958239;28;19915;-67
2022/04/19 03:00:32;;;;;;;;;;;10.00;92.10;;;;;;4967758;28;20339;-67
2022/04/19 03:02:58;;;;;;;;;;;10.00;92.20;;;;;;4962726;28;19917;-68
2022/04/19 03:05:23;;;;;;;;;;;9.90;92.10;;;;;;4967903;28;19953;-68
2022/04/19 03:07:49;;;;;;;;;;;9.90;92.00;;;;;;4967078;28;19914;-69
2022/04/19 03:10:15;;;;;;;;;;;9.80;91.80;;;;;;4960426;28;20061;-70
2022/04/19 03:12:42;;;;;;;;;;;9.80;91.80;;;;;;4970630;28;19910;-70
2022/04/19 03:15:08;;;;;;;;;;;9.90;92.00;;;;;;4966714;28;19929;-67
2022/04/19 03:17:34;;;;;;;;;;;9.80;92.00;;;;;;4969944;28;20376;-69
2022/04/19 03:20:00;;;;;;;;;;;9.80;92.00;;;;;;4970891;28;20016;-68
2022/04/19 03:27:41;;;;;;;;;;;9.80;92.00;;;;;;4971352;28;19949;-69
2022/04/19 03:27:55;;;;;;;;;;;9.80;91.90;;;;;;4957458;28;19921;-66
2022/04/19 03:30:21;;;;;;;;;;;9.70;91.70;;;;;;4965046;28;19911;-68
2022/04/19 03:32:47;;;;;;;;;;;9.80;92.00;;;;;;4959526;28;19919;-70
2022/04/19 03:35:13;;;;;;;;;;;9.70;92.10;;;;;;4967479;28;19922;-67
2022/04/19 03:37:41;;;;;;;;;;;9.70;92.30;;;;;;4966169;28;20379;-68
2022/04/19 03:40:07;;;;;;;;;;;9.70;92.00;;;;;;4972060;28;19922;-68
2022/04/19 03:42:33;;;;;;;;;;;9.70;92.30;;;;;;4969634;28;19910;-67
2022/04/19 03:44:58;;;;;;;;;;;9.70;92.20;;;;;;4962177;28;20296;-68
2022/04/19 03:47:24;;;;;;;;;;;9.60;92.50;;;;;;4972290;28;19922;-67
2022/04/19 03:49:49;;;;;;;;;;;9.60;92.70;;;;;;4970401;28;19914;-70
2022/04/19 03:52:15;;;;;;;;;;;9.60;92.60;;;;;;4966850;28;20351;-68
2022/04/19 03:54:41;;;;;;;;;;;9.60;92.70;;;;;;4968908;28;19926;-68
2022/04/19 03:57:07;;;;;;;;;;;9.60;92.70;;;;;;4966521;28;20358;-67
2022/04/19 03:59:33;;;;;;;;;;;9.60;92.80;;;;;;4965654;28;19969;-67
2022/04/19 04:01:59;;;;;;;;;;;9.60;93.00;;;;;;4965427;28;19918;-70
2022/04/19 04:04:30;;;;;;;;;;;9.60;93.20;;;;;;4961389;28;19914;-70
2022/04/19 04:06:59;;;;;;;;;;;9.60;93.10;;;;;;4972010;28;19914;-71
2022/04/19 04:09:25;;;;;;;;;;;9.60;93.40;;;;;;4971666;28;19932;-66
2022/04/19 04:11:51;;;;;;;;;;;9.60;93.20;;;;;;4970430;28;20379;-66
2022/04/19 04:14:16;;;;;;;;;;;9.60;93.30;;;;;;4970822;28;20210;-67
2022/04/19 04:16:42;;;;;;;;;;;9.60;93.40;;;;;;4971736;28;19938;-67
2022/04/19 04:19:07;;;;;;;;;;;9.60;93.50;;;;;;4971610;28;19914;-66
2022/04/19 04:21:33;;;;;;;;;;;9.60;94.20;;;;;;4970951;28;19945;-66
2022/04/19 04:23:58;;;;;;;;;;;9.60;93.70;;;;;;4972895;28;19907;-69
2022/04/19 04:26:24;;;;;;;;;;;9.60;93.30;;;;;;4970751;28;20054;-68
2022/04/19 04:28:49;;;;;;;;;;;9.60;93.60;;;;;;4970504;28;19914;-68
2022/04/19 04:31:15;;;;;;;;;;;9.60;93.60;;;;;;4968534;28;19992;-68
2022/04/19 04:33:40;;;;;;;;;;;9.60;93.70;;;;;;4965171;28;19918;-69
2022/04/19 04:36:06;;;;;;;;;;;9.60;93.70;;;;;;4964063;28;20402;-68
2022/04/19 04:38:31;;;;;;;;;;;9.60;93.50;;;;;;4963890;28;20061;-68
2022/04/19 04:40:57;;;;;;;;;;;9.60;94.00;;;;;;4979725;28;19922;-67
2022/04/19 04:43:23;;;;;;;;;;;9.60;93.60;;;;;;4969876;28;19921;-65
2022/04/19 04:49:35;;;;;;;;;;;9.60;94.00;;;;;;4970974;28;19957;-65
2022/04/19 04:51:18;;;;;;;;;;;9.60;94.20;;;;;;4972619;28;19917;-66
2022/04/19 04:53:43;;;;;;;;;;;9.60;94.50;;;;;;4969800;28;19922;-67
2022/04/19 04:56:09;;;;;;;;;;;9.60;94.40;;;;;;4970831;28;19993;-66
2022/04/19 04:58:34;;;;;;;;;;;9.60;94.30;;;;;;4970907;28;19915;-68
2022/04/19 05:01:00;;;;;;;;;;;9.60;94.60;;;;;;4969857;28;19969;-66
2022/04/19 05:03:26;;;;;;;;;;;9.60;94.60;;;;;;4967655;28;19918;-66
2022/04/19 05:05:51;;;;;;;;;;;9.60;94.70;;;;;;4971294;28;19918;-66
2022/04/19 05:08:18;;;;;;;;;;;9.60;95.00;;;;;;4966991;28;19922;-65
2022/04/19 05:10:43;;;;;;;;;;;9.60;95.20;;;;;;4965810;28;19981;-67
2022/04/19 05:13:09;;;;;;;;;;;9.60;94.90;;;;;;4965037;28;20456;-66
2022/04/19 05:15:35;;;;;;;;;;;9.60;95.60;;;;;;4962060;28;20395;-66
2022/04/19 05:18:00;;;;;;;;;;;9.60;95.40;;;;;;4963113;28;19918;-66
2022/04/19 05:20:26;;;;;;;;;;;9.60;95.30;;;;;;4971320;28;19914;-69
2022/04/19 05:22:52;;;;;;;;;;;9.60;95.30;;;;;;4972272;28;20355;-67
2022/04/19 05:25:17;;;;;;;;;;;9.60;95.40;;;;;;4974277;28;20382;-67
2022/04/19 05:27:43;;;;;;;;;;;9.60;95.90;;;;;;4975445;28;19922;-67
2022/04/19 05:30:09;;;;;;;;;;;9.60;96.00;;;;;;4971101;28;19962;-66
2022/04/19 05:32:34;;;;;;;;;;;9.60;96.00;;;;;;4964662;28;19922;-66
2022/04/19 05:35:00;;;;;;;;;;;9.60;95.90;;;;;;4968654;28;19922;-66
2022/04/19 05:37:26;;;;;;;;;;;9.60;96.30;;;;;;4971159;28;20408;-67
2022/04/19 05:39:51;;;;;;;;;;;9.60;96.00;;;;;;4966007;28;19933;-66
2022/04/19 05:42:17;;;;;;;;;;;9.70;96.20;;;;;;4973189;28;19918;-66
2022/04/19 05:44:43;;;;;;;;;;;9.70;97.10;;;;;;4968965;28;20013;-66
2022/04/19 05:47:09;;;;;;;;;;;9.70;96.80;;;;;;4973935;28;19914;-67
2022/04/19 05:49:35;;;;;;;;;;;9.70;96.80;;;;;;4970314;28;20353;-69
2022/04/19 05:52:01;;;;;;;;;;;9.80;97.70;;;;;;4973731;28;20036;-63
2022/04/19 05:54:27;;;;;;;;;;;9.70;97.30;;;;;;4968451;28;20431;-66
2022/04/19 05:56:53;;;;;;;;;;;9.70;97.50;;;;;;4989161;28;19918;-66
2022/04/19 05:59:18;;;;;;;;;;;9.70;97.30;;;;;;4973231;28;19989;-65
2022/04/19 06:07:12;;;;;;;;;;;9.80;98.20;;;;;;4974082;28;19968;-67
2022/04/19 06:09:38;;;;;;;;;;;9.80;98.10;;;;;;4965052;28;20004;-68
2022/04/19 06:12:04;;;;;;;;;;;9.80;98.40;;;;;;4973939;28;19921;-67
2022/04/19 06:14:29;;;;;;;;;;;9.80;98.70;;;;;;4970166;28;19933;-65
2022/04/19 06:16:55;;;;;;;;;;;9.90;98.20;;;;;;4974153;28;19961;-67
2022/04/19 06:19:20;;;;;;;;;;;9.90;98.30;;;;;;4969348;28;20373;-65
2022/04/19 06:21:47;;;;;;;;;;;10.00;98.50;;;;;;4970976;28;19914;-68
2022/04/19 06:24:13;;;;;;;;;;;10.00;98.70;;;;;;4968745;28;19916;-67
2022/04/19 06:26:39;;;;;;;;;;;9.90;98.90;;;;;;4965005;28;19910;-65
2022/04/19 06:29:04;;;;;;;;;;;10.00;98.90;;;;;;4972336;28;19972;-65
2022/04/19 06:31:30;;;;;;;;;;;10.00;99.10;;;;;;4968330;28;20358;-67
2022/04/19 06:33:55;;;;;;;;;;;10.10;98.90;;;;;;4958621;28;19922;-59
2022/04/19 06:36:21;;;;;;;;;;;10.10;99.10;;;;;;4969231;28;19911;-58
2022/04/19 06:38:46;;;;;;;;;;;10.20;98.60;;;;;;4964150;28;19914;-58
2022/04/19 06:41:12;;;;;;;;;;;10.30;98.80;;;;;;4970209;28;19969;-58
2022/04/19 06:43:38;;;;;;;;;;;10.40;98.50;;;;;;4971803;28;19918;-58
2022/04/19 06:46:03;;;;;;;;;;;10.40;98.80;;;;;;4980414;28;19922;-57
2022/04/19 06:48:29;;;;;;;;;;;10.40;98.50;;;;;;4979849;28;19996;-59
2022/04/19 06:50:54;;;;;;;;;;;10.40;98.80;;;;;;4978371;28;19997;-56
2022/04/19 06:53:20;;;;;;;;;;;10.40;98.60;;;;;;4980834;28;19914;-56
2022/04/19 06:55:45;;;;;;;;;;;10.50;98.60;;;;;;4978605;28;20360;-57
2022/04/19 06:58:11;;;;;;;;;;;10.50;98.30;;;;;;4981176;28;19922;-57
2022/04/19 07:00:36;;;;;;;;;;;10.50;98.70;;;;;;4983293;28;20307;-58
2022/04/19 07:03:02;;;;;;;;;;;10.50;98.40;;;;;;4982132;28;20008;-58
2022/04/19 07:05:27;;;;;;;;;;;10.50;98.70;;;;;;4972379;28;20298;-59
2022/04/19 07:07:53;;;;;;;;;;;10.50;98.70;;;;;;4965103;28;20012;-58
2022/04/19 07:10:18;;;;;;;;;;;10.50;98.50;;;;;;4960556;28;19960;-58
2022/04/19 07:12:44;;;;;;;;;;;10.60;98.50;;;;;;4967297;28;19922;-58
2022/04/19 07:15:10;;;;;;;;;;;10.60;98.50;;;;;;4961937;28;19925;-58
2022/04/19 07:17:39;;;;;;;;;;;10.60;98.40;;;;;;4980477;28;19914;-57
2022/04/19 07:28:18;;;;;;;;;;;10.60;98.00;;;;;;4970791;28;19925;-58
2022/04/19 07:30:43;;;;;;;;;;;10.60;98.00;;;;;;4969133;28;27023;-58
2022/04/19 07:33:09;;;;;;;;;;;10.60;98.10;;;;;;4970280;28;19918;-57
2022/04/19 07:35:34;;;;;;;;;;;10.60;98.20;;;;;;4969578;28;19922;-57
2022/04/19 07:38:00;;;;;;;;;;;10.70;98.40;;;;;;4983964;28;19920;-57
2022/04/19 07:40:26;;;;;;;;;;;10.70;98.20;;;;;;4974055;28;20363;-58
2022/04/19 07:42:51;;;;;;;;;;;10.70;98.20;;;;;;4968904;28;19921;-58
2022/04/19 07:45:17;;;;;;;;;;;10.70;98.10;;;;;;4968545;28;19944;-58
2022/04/19 07:47:42;;;;;;;;;;;10.80;98.00;;;;;;4970496;28;19918;-57
2022/04/19 07:50:08;;;;;;;;;;;10.80;98.00;;;;;;4968964;28;19922;-58
2022/04/19 07:52:34;;;;;;;;;;;10.90;97.80;;;;;;4970120;28;20330;-58
2022/04/19 07:55:00;;;;;;;;;;;10.90;97.70;;;;;;4969074;28;19926;-57
2022/04/19 07:57:25;;;;;;;;;;;11.00;97.70;;;;;;4971030;28;20444;-58
2022/04/19 07:59:54;;;;;;;;;;;11.00;97.30;;;;;;4969989;28;19914;-57
2022/04/19 08:02:20;;;;;;;;;;;11.00;97.40;;;;;;4968538;28;19921;-58
2022/04/19 08:04:46;;;;;;;;;;;11.10;97.30;;;;;;4969902;28;19918;-59
2022/04/19 08:07:11;;;;;;;;;;;11.10;97.20;;;;;;4968973;28;19918;-58
2022/04/19 08:09:37;;;;;;;;;;;11.10;96.90;;;;;;4966690;28;19918;-58
2022/04/19 08:12:03;;;;;;;;;;;11.10;97.00;;;;;;4969780;28;20108;-58
2022/04/19 08:14:28;;;;;;;;;;;11.20;96.90;;;;;;4966886;28;19926;-58
2022/04/19 08:16:54;;;;;;;;;;;11.20;96.90;;;;;;4971331;28;20406;-57
2022/04/19 08:19:19;;;;;;;;;;;11.30;96.80;;;;;;4968717;28;20315;-58
2022/04/19 08:21:44;;;;;;;;;;;11.30;96.80;;;;;;4972307;28;19969;-57
2022/04/19 08:24:10;;;;;;;;;;;11.40;96.60;;;;;;4970155;28;19925;-58
2022/04/19 08:26:35;;;;;;;;;;;11.50;96.20;;;;;;4971022;28;20078;-57
2022/04/19 08:29:01;;;;;;;;;;;11.50;95.90;;;;;;4969389;28;19918;-58
2022/04/19 08:31:27;;;;;;;;;;;11.60;95.70;;;;;;4982196;28;20402;-58
2022/04/19 08:33:53;;;;;;;;;;;11.70;95.90;;;;;;4967537;28;19940;-57
2022/04/19 08:36:19;;;;;;;;;;;11.80;95.60;;;;;;4971691;28;20371;-58
2022/04/19 08:38:46;;;;;;;;;;;11.90;95.50;;;;;;4965669;28;19944;-57
2022/04/19 08:41:12;;;;;;;;;;;11.90;95.60;;;;;;4966725;28;19997;-57
2022/04/19 08:43:38;;;;;;;;;;;12.00;95.60;;;;;;4967986;28;20056;-59
2022/04/19 08:46:06;;;;;;;;;;;12.10;94.70;;;;;;4971594;28;19933;-57
2022/04/19 08:48:32;;;;;;;;;;;12.20;94.60;;;;;;4975955;28;19993;-57
2022/04/19 08:51:01;;;;;;;;;;;12.20;94.70;;;;;;4967930;28;19919;-58
2022/04/19 08:58:56;;;;;;;;;;;12.30;93.60;;;;;;4971346;28;19960;-58
2022/04/19 09:01:21;;;;;;;;;;;12.40;94.00;;;;;;4971626;28;19945;-58
2022/04/19 09:03:47;;;;;;;;;;;12.50;93.50;;;;;;4967994;28;19922;-59
2022/04/19 09:06:13;;;;;;;;;;;12.60;93.30;;;;;;4968716;28;20000;-57
2022/04/19 09:08:39;;;;;;;;;;;12.70;94.00;;;;;;4972278;28;20013;-58
2022/04/19 09:11:08;;;;;;;;;;;12.80;93.80;;;;;;4969953;28;20361;-59
2022/04/19 09:13:34;;;;;;;;;;;12.90;93.20;;;;;;4971714;28;20349;-57
2022/04/19 09:16:06;;;;;;;;;;;12.90;92.40;;;;;;4974415;28;19926;-57
2022/04/19 09:18:34;;;;;;;;;;;12.90;92.70;;;;;;4969863;28;19946;-58
2022/04/19 09:21:00;;;;;;;;;;;13.00;93.40;;;;;;4968982;28;19918;-57
2022/04/19 09:23:27;;;;;;;;;;;13.10;92.90;;;;;;4969718;28;19957;-58
2022/04/19 09:25:53;;;;;;;;;;;13.20;92.20;;;;;;4967110;28;19997;-58
2022/04/19 09:28:19;;;;;;;;;;;13.30;92.10;;;;;;4970930;28;20082;-57
2022/04/19 09:30:48;;;;;;;;;;;13.30;92.00;;;;;;4966993;28;19930;-57
2022/04/19 09:33:18;;;;;;;;;;;13.40;91.70;;;;;;4968188;28;19954;-58
2022/04/19 09:35:47;;;;;;;;;;;13.40;91.80;;;;;;4967822;28;19926;-58
2022/04/19 09:38:14;;;;;;;;;;;13.50;91.60;;;;;;4983663;28;19921;-57
2022/04/19 09:40:41;;;;;;;;;;;13.50;91.80;;;;;;4969045;28;19940;-59
2022/04/19 09:43:10;;;;;;;;;;;13.60;91.90;;;;;;4967771;28;20467;-57
2022/04/19 09:45:50;;;;;;;;;;;13.60;92.00;;;;;;4968146;28;20029;-59
2022/04/19 09:48:17;;;;;;;;;;;13.70;91.40;;;;;;4969584;28;19918;-58
2022/04/19 09:50:53;;;;;;;;;;;13.80;91.40;;;;;;4967300;28;19914;-58
2022/04/19 09:53:19;;;;;;;;;;;13.80;91.60;;;;;;4967301;28;19922;-58
2022/04/19 09:55:46;;;;;;;;;;;14.00;91.30;;;;;;4965364;28;19929;-57
2022/04/19 09:58:12;;;;;;;;;;;14.00;91.40;;;;;;4968110;28;19918;-58
2022/04/19 10:00:37;;;;;;;;;;;14.20;91.20;;;;;;4966381;28;19918;-59
2022/04/19 10:08:31;;;;;;;;;;;14.30;90.70;;;;;;4970991;28;19922;-59
2022/04/19 10:10:57;;;;;;;;;;;14.40;91.00;;;;;;4971791;28;19918;-58
2022/04/19 10:13:23;;;;;;;;;;;14.30;90.60;;;;;;4971556;28;19914;-58
2022/04/19 10:15:49;;;;;;;;;;;14.30;90.10;;;;;;4971938;28;20315;-59
2022/04/19 10:18:15;;;;;;;;;;;14.40;90.50;;;;;;4969324;28;19921;-59
2022/04/19 10:21:01;;;;;;;;;;;14.40;90.50;;;;;;4969843;28;19922;-58
2022/04/19 10:23:37;;;;;;;;;;;14.40;90.70;;;;;;4970673;28;19921;-58
2022/04/19 10:26:16;;;;;;;;;;;14.50;90.30;;;;;;4969731;28;19923;-57
2022/04/19 10:28:42;;;;;;;;;;;14.60;90.70;;;;;;4970424;28;19918;-58
2022/04/19 10:31:10;;;;;;;;;;;14.60;90.30;;;;;;4972726;28;19918;-59
2022/04/19 10:33:39;;;;;;;;;;;14.60;90.50;;;;;;4968429;28;20654;-55
2022/04/19 10:36:16;;;;;;;;;;;14.70;90.50;;;;;;4971152;28;19914;-60
2022/04/19 10:38:42;;;;;;;;;;;14.80;90.60;;;;;;4973161;28;19921;-57
2022/04/19 10:41:08;;;;;;;;;;;14.90;90.40;;;;;;4973510;28;19918;-58
2022/04/19 10:43:34;;;;;;;;;;;14.90;90.30;;;;;;4964653;28;19914;-58
2022/04/19 10:46:18;;;;;;;;;;;15.00;90.70;;;;;;4958661;28;20429;-59
2022/04/19 10:49:02;;;;;;;;;;;15.00;90.90;;;;;;4965679;28;19965;-58
2022/04/19 10:51:27;;;;;;;;;;;15.10;90.60;;;;;;4956109;28;19914;-59
2022/04/19 10:53:53;;;;;;;;;;;15.10;90.50;;;;;;4972133;28;19921;-58
2022/04/19 10:56:19;;;;;;;;;;;15.10;90.90;;;;;;4965665;28;20284;-58
2022/04/19 10:58:44;;;;;;;;;;;15.20;90.70;;;;;;4981850;28;20264;-58
2022/04/19 11:01:30;;;;;;;;;;;15.20;90.40;;;;;;4977484;28;20009;-58
2022/04/19 11:03:56;;;;;;;;;;;15.20;90.60;;;;;;4975399;28;20302;-58
2022/04/19 11:06:31;;;;;;;;;;;15.20;90.60;;;;;;4982270;28;20009;-57
2022/04/19 11:09:15;;;;;;;;;;;15.30;90.50;;;;;;4973137;28;19965;-58
2022/04/19 11:11:48;;;;;;;;;;;15.30;90.50;;;;;;4969807;28;20399;-58
2022/04/19 11:14:21;;;;;;;;;;;15.30;90.40;;;;;;4969697;28;19919;-58
2022/04/19 11:16:50;;;;;;;;;;;15.30;90.10;;;;;;4971474;28;19969;-59
2022/04/19 11:19:19;;;;;;;;;;;15.40;90.20;;;;;;4965891;28;19922;-57
2022/04/19 11:21:51;;;;;;;;;;;15.50;90.00;;;;;;4972135;28;20013;-57
2022/04/19 11:24:35;;;;;;;;;;;15.50;90.20;;;;;;4967462;28;19957;-59
2022/04/19 11:27:01;;;;;;;;;;;15.60;90.00;;;;;;4961080;28;19914;-58
2022/04/19 11:29:27;;;;;;;;;;;15.60;89.50;;;;;;4968677;28;19921;-58
2022/04/19 11:31:52;;;;;;;;;;;15.60;88.80;;;;;;4965042;28;19914;-59
2022/04/19 11:34:18;;;;;;;;;;;15.70;89.30;;;;;;4962032;28;19949;-58
2022/04/19 11:36:43;;;;;;;;;;;15.70;88.70;;;;;;4969143;28;20013;-56
2022/04/19 11:46:44;;;;;;;;;;;15.70;89.40;;;;;;4964728;28;19910;-59
2022/04/19 11:47:47;;;;;;;;;;;15.90;87.00;;;;;;4967726;28;19942;-59
2022/04/19 11:50:30;;;;;;;;;;;15.90;88.70;;;;;;4971484;28;19921;-58
2022/04/19 11:53:00;;;;;;;;;;;15.90;88.30;;;;;;4970861;28;20379;-58
2022/04/19 11:55:27;;;;;;;;;;;16.00;89.00;;;;;;4965148;28;19922;-58
2022/04/19 11:58:08;;;;;;;;;;;16.10;89.00;;;;;;4957484;28;19922;-58
2022/04/19 12:00:34;;;;;;;;;;;16.10;88.60;;;;;;4964166;28;19945;-58
2022/04/19 12:03:03;;;;;;;;;;;16.20;88.80;;;;;;4962291;28;19953;-57
2022/04/19 12:05:30;;;;;;;;;;;16.20;89.60;;;;;;4971650;28;19914;-57
2022/04/19 12:07:56;;;;;;;;;;;16.40;90.10;;;;;;4968316;28;19937;-58
2022/04/19 12:10:22;;;;;;;;;;;16.40;89.20;;;;;;4967378;28;20363;-58
2022/04/19 12:12:48;;;;;;;;;;;16.40;87.90;;;;;;4969085;28;19925;-57
2022/04/19 12:15:34;;;;;;;;;;;16.50;89.00;;;;;;4967494;28;19918;-57
2022/04/19 12:17:59;;;;;;;;;;;16.60;89.40;;;;;;4965349;28;19977;-58
2022/04/19 12:20:26;;;;;;;;;;;16.60;87.40;;;;;;4964077;28;20383;-58
2022/04/19 12:22:51;;;;;;;;;;;16.60;87.40;;;;;;4963066;28;19921;-58
2022/04/19 12:25:21;;;;;;;;;;;16.60;87.10;;;;;;4970562;28;20159;-58
2022/04/19 12:27:50;;;;;;;;;;;16.60;87.60;;;;;;4970368;28;19922;-58
2022/04/19 12:30:17;;;;;;;;;;;16.60;87.60;;;;;;4986733;28;20135;-57
2022/04/19 12:32:50;;;;;;;;;;;16.60;86.90;;;;;;4971186;28;19936;-57
2022/04/19 12:35:16;;;;;;;;;;;16.70;87.90;;;;;;4969763;28;19922;-57
2022/04/19 12:37:42;;;;;;;;;;;16.80;87.30;;;;;;4967912;28;20405;-58
2022/04/19 12:40:08;;;;;;;;;;;16.90;87.50;;;;;;4965727;28;19996;-58
2022/04/19 12:42:50;;;;;;;;;;;16.90;86.30;;;;;;4965798;28;19987;-58
2022/04/19 12:45:17;;;;;;;;;;;16.90;86.80;;;;;;4962914;28;19922;-59
2022/04/19 12:47:46;;;;;;;;;;;17.00;86.60;;;;;;4963545;28;19914;-58
2022/04/19 12:50:13;;;;;;;;;;;16.90;86.10;;;;;;4962252;28;19915;-58
2022/04/19 12:52:40;;;;;;;;;;;16.90;86.70;;;;;;4960973;28;20033;-59
2022/04/19 12:55:06;;;;;;;;;;;16.80;86.20;;;;;;4957289;28;19928;-58
2022/04/19 12:57:34;;;;;;;;;;;16.80;86.10;;;;;;4969405;28;19910;-58
2022/04/19 12:59:59;;;;;;;;;;;16.70;85.80;;;;;;4967851;28;19922;-58
2022/04/19 13:02:25;;;;;;;;;;;16.60;86.20;;;;;;4971330;28;19921;-58
2022/04/19 13:04:50;;;;;;;;;;;16.50;85.80;;;;;;4971475;28;20434;-59
2022/04/19 13:12:44;;;;;;;;;;;16.50;86.00;;;;;;4969793;28;19965;-58
2022/04/19 13:15:10;;;;;;;;;;;16.50;86.00;;;;;;4967879;28;20343;-58
2022/04/19 13:17:38;;;;;;;;;;;16.50;86.40;;;;;;4966586;28;19921;-57
2022/04/19 13:20:04;;;;;;;;;;;16.60;86.10;;;;;;4970436;28;20402;-58
2022/04/19 13:22:30;;;;;;;;;;;16.60;86.00;;;;;;4970757;28;19997;-59
2022/04/19 13:24:57;;;;;;;;;;;16.60;85.50;;;;;;4962246;28;20005;-58
2022/04/19 13:27:24;;;;;;;;;;;16.70;85.20;;;;;;4954462;28;19981;-58
2022/04/19 13:29:50;;;;;;;;;;;16.70;83.50;;;;;;4966714;28;19919;-58
2022/04/19 13:32:15;;;;;;;;;;;16.60;83.90;;;;;;4961642;28;19921;-58
2022/04/19 13:34:41;;;;;;;;;;;16.60;83.10;;;;;;4976200;28;19922;-59
2022/04/19 13:37:07;;;;;;;;;;;16.60;83.30;;;;;;4965784;28;20000;-57
2022/04/19 13:39:32;;;;;;;;;;;16.60;83.50;;;;;;4961413;28;19910;-59
2022/04/19 13:41:58;;;;;;;;;;;16.60;82.80;;;;;;4973913;28;19965;-58
2022/04/19 13:44:23;;;;;;;;;;;16.60;82.80;;;;;;4968875;28;19922;-59
2022/04/19 13:46:49;;;;;;;;;;;16.70;82.60;;;;;;4972137;28;19922;-58
2022/04/19 13:49:16;;;;;;;;;;;16.60;81.30;;;;;;4972762;28;19949;-57
2022/04/19 13:51:42;;;;;;;;;;;16.60;81.80;;;;;;4968398;28;19914;-58
2022/04/19 13:54:12;;;;;;;;;;;16.60;81.20;;;;;;4971200;28;20020;-56
2022/04/19 13:56:38;;;;;;;;;;;16.60;81.80;;;;;;4973023;28;19914;-55
2022/04/19 13:59:04;;;;;;;;;;;16.50;81.40;;;;;;4973586;28;19918;-59
2022/04/19 14:01:31;;;;;;;;;;;16.60;81.70;;;;;;4968580;28;19921;-58
2022/04/19 14:03:57;;;;;;;;;;;16.70;81.60;;;;;;4960010;28;20376;-58
2022/04/19 14:06:22;;;;;;;;;;;16.60;81.80;;;;;;4969864;28;19911;-58
2022/04/19 14:08:48;;;;;;;;;;;16.70;82.10;;;;;;4964308;28;19915;-58
2022/04/19 14:11:13;;;;;;;;;;;16.70;82.20;;;;;;4969373;28;19918;-59
2022/04/19 14:13:39;;;;;;;;;;;16.70;82.70;;;;;;4970739;28;19944;-58
2022/04/19 14:16:05;;;;;;;;;;;16.70;83.30;;;;;;4966502;28;19918;-58
2022/04/19 14:18:31;;;;;;;;;;;16.90;83.20;;;;;;4972777;28;19915;-58
2022/04/19 14:20:57;;;;;;;;;;;16.90;81.60;;;;;;4965226;28;20500;-58
2022/04/19 14:23:22;;;;;;;;;;;16.80;82.10;;;;;;4961975;28;20343;-58
2022/04/19 14:25:48;;;;;;;;;;;16.90;81.10;;;;;;4971170;28;19921;-57
2022/04/19 14:28:14;;;;;;;;;;;16.90;80.80;;;;;;4972398;28;20568;-58
2022/04/19 14:33:25;;;;;;;;;;;16.80;81.30;;;;;;4970787;28;19921;-58
2022/04/19 14:35:51;;;;;;;;;;;16.90;82.00;;;;;;4970862;28;19933;-58
2022/04/19 14:38:16;;;;;;;;;;;16.90;80.90;;;;;;4969358;28;20425;-57
2022/04/19 14:40:42;;;;;;;;;;;17.00;80.70;;;;;;4968488;28;20008;-60
2022/04/19 14:43:08;;;;;;;;;;;17.00;80.60;;;;;;4970870;28;19914;-57
2022/04/19 14:45:34;;;;;;;;;;;17.00;80.90;;;;;;4972693;28;19926;-57
2022/04/19 14:47:59;;;;;;;;;;;17.10;81.00;;;;;;4968367;28;20582;-57
2022/04/19 14:50:25;;;;;;;;;;;17.10;79.50;;;;;;4970884;28;19918;-57
2022/04/19 14:52:50;;;;;;;;;;;17.20;79.30;;;;;;4971414;28;20284;-58
2022/04/19 14:55:16;;;;;;;;;;;17.20;79.30;;;;;;4971411;28;19926;-58
2022/04/19 14:57:42;;;;;;;;;;;17.20;79.10;;;;;;4970473;28;20009;-58
2022/04/19 15:00:08;;;;;;;;;;;17.30;79.30;;;;;;4971747;28;19918;-55